createdAt,value
2022-09-27T00:00:23.675Z,73.25
2022-09-27T00:03:29.573Z,73.31
2022-09-27T00:06:41.746Z,73.36
2022-09-27T00:09:48.296Z,73.39
2022-09-27T00:12:55.330Z,73.39
2022-09-27T00:16:02.177Z,73.40
2022-09-27T00:19:08.158Z,73.44
2022-09-27T00:22:14.070Z,73.43
2022-09-27T00:25:23.191Z,73.49
2022-09-27T00:28:28.309Z,73.54
2022-09-27T00:31:38.040Z,73.57
2022-09-27T00:34:45.093Z,73.64
2022-09-27T00:37:51.656Z,73.69
2022-09-27T00:40:57.766Z,73.72
2022-09-27T00:44:15.949Z,73.76
2022-09-27T00:47:49.232Z,73.80
2022-09-27T00:50:57.910Z,73.85
2022-09-27T00:54:06.729Z,73.89
2022-09-27T00:57:11.969Z,73.91
2022-09-27T01:00:24.250Z,73.93
2022-09-27T01:03:37.659Z,74.00
2022-09-27T01:06:45.819Z,74.04
2022-09-27T01:09:50.946Z,74.11
2022-09-27T01:13:34.845Z,74.22
2022-09-27T01:16:47.691Z,74.26
2022-09-27T01:20:33.251Z,74.34
2022-09-27T01:23:50.535Z,74.39
2022-09-27T01:27:11.903Z,74.44
2022-09-27T01:30:24.589Z,74.52
2022-09-27T01:33:55.233Z,74.56
2022-09-27T01:37:15.237Z,74.62
2022-09-27T01:40:25.280Z,74.70
2022-09-27T01:43:47.191Z,74.77
2022-09-27T01:47:01.295Z,74.86
2022-09-27T01:50:23.744Z,74.93
2022-09-27T01:53:36.984Z,74.98
2022-09-27T01:57:04.326Z,75.02
2022-09-27T02:00:17.670Z,75.10
2022-09-27T02:03:29.364Z,75.15
2022-09-27T02:06:58.734Z,75.25
2022-09-27T02:10:12.544Z,75.32
2022-09-27T02:13:47.615Z,75.37
2022-09-27T02:17:39.930Z,75.43
2022-09-27T02:20:54.545Z,75.50
2022-09-27T02:24:08.401Z,75.58
2022-09-27T02:27:28.294Z,75.63
2022-09-27T02:30:37.125Z,75.71
2022-09-27T02:34:14.411Z,75.79
2022-09-27T02:37:20.709Z,75.86
2022-09-27T02:40:26.613Z,75.93
2022-09-27T02:43:33.605Z,75.99
2022-09-27T02:46:54.358Z,76.04
2022-09-27T02:50:12.496Z,76.09
2022-09-27T02:53:40.436Z,76.12
2022-09-27T02:57:35.668Z,76.17
2022-09-27T03:01:19.739Z,76.22
2022-09-27T03:04:55.049Z,76.29
2022-09-27T03:08:02.059Z,76.34
2022-09-27T03:11:09.049Z,76.39
2022-09-27T03:14:15.763Z,76.43
2022-09-27T03:17:33.035Z,76.48
2022-09-27T03:20:57.010Z,76.54
2022-09-27T03:24:03.609Z,76.60
2022-09-27T03:27:10.098Z,76.66
2022-09-27T03:30:15.637Z,76.70
2022-09-27T03:33:21.721Z,76.74
2022-09-27T03:36:28.693Z,76.75
2022-09-27T03:39:34.384Z,76.79
2022-09-27T03:42:40.791Z,76.85
2022-09-27T03:45:46.642Z,76.87
2022-09-27T03:48:52.819Z,76.94
2022-09-27T03:51:59.837Z,77.00
2022-09-27T03:55:04.594Z,77.03
2022-09-27T03:58:09.987Z,77.07
2022-09-27T04:01:15.307Z,77.14
2022-09-27T04:04:23.086Z,77.21
2022-09-27T04:07:30.391Z,77.24
2022-09-27T04:10:37.828Z,77.31
2022-09-27T04:13:45.722Z,77.37
2022-09-27T04:16:52.034Z,77.42
2022-09-27T04:20:07.048Z,77.46
2022-09-27T04:23:13.628Z,77.52
2022-09-27T04:26:21.991Z,77.56
2022-09-27T04:29:33.022Z,77.63
2022-09-27T04:32:43.152Z,77.66
2022-09-27T04:36:16.709Z,77.69
2022-09-27T04:39:25.597Z,77.74
2022-09-27T04:42:30.909Z,77.78
2022-09-27T04:45:36.571Z,77.81
2022-09-27T04:48:43.071Z,77.87
2022-09-27T04:51:49.119Z,77.93
2022-09-27T04:54:57.334Z,77.94
2022-09-27T04:58:03.918Z,77.99
2022-09-27T05:01:12.041Z,78.11
2022-09-27T05:04:34.731Z,78.21
2022-09-27T05:07:42.314Z,78.27
2022-09-27T05:10:50.241Z,78.31
2022-09-27T05:13:58.094Z,78.35
2022-09-27T05:17:06.554Z,78.38
2022-09-27T05:20:22.306Z,78.42
2022-09-27T05:23:33.027Z,78.45
2022-09-27T05:26:38.816Z,78.53
2022-09-27T05:29:46.456Z,78.57
2022-09-27T05:32:58.196Z,78.61
2022-09-27T05:36:18.819Z,78.66
2022-09-27T05:39:25.502Z,78.66
2022-09-27T05:42:25.115Z,78.68
2022-09-27T05:45:12.158Z,78.71
2022-09-27T05:48:06.547Z,78.73
2022-09-27T05:51:17.218Z,78.74
2022-09-27T05:54:23.799Z,78.82
2022-09-27T05:57:30.474Z,78.84
2022-09-27T06:00:38.285Z,78.83
2022-09-27T06:03:58.325Z,78.88
2022-09-27T06:07:20.751Z,78.91
2022-09-27T06:10:26.041Z,78.92
2022-09-27T06:13:34.367Z,78.91
2022-09-27T06:16:44.974Z,78.92
2022-09-27T06:19:50.705Z,78.97
2022-09-27T06:22:56.411Z,79.03
2022-09-27T06:26:07.838Z,79.05
2022-09-27T06:29:35.250Z,79.05
2022-09-27T06:32:45.765Z,79.05
2022-09-27T06:35:53.460Z,79.09
2022-09-27T06:38:59.897Z,79.13
2022-09-27T06:42:09.636Z,79.18
2022-09-27T06:45:34.375Z,79.22
2022-09-27T06:48:55.615Z,79.21
2022-09-27T06:52:04.008Z,79.28
2022-09-27T06:55:09.804Z,79.23
2022-09-27T06:58:34.319Z,79.18
2022-09-27T07:01:45.988Z,79.18
2022-09-27T07:05:03.205Z,79.12
2022-09-27T07:08:12.412Z,79.20
2022-09-27T07:11:22.574Z,79.26
2022-09-27T07:14:33.091Z,79.28
2022-09-27T07:17:47.027Z,79.31
2022-09-27T07:20:56.865Z,79.31
2022-09-27T07:24:07.280Z,79.35
2022-09-27T07:27:16.166Z,79.37
2022-09-27T07:30:25.193Z,79.38
2022-09-27T07:33:33.171Z,79.42
2022-09-27T07:36:41.200Z,79.41
2022-09-27T07:39:48.233Z,79.38
2022-09-27T07:42:57.357Z,79.40
2022-09-27T07:46:03.805Z,79.40
2022-09-27T07:49:11.450Z,79.44
2022-09-27T07:52:35.203Z,79.46
2022-09-27T07:56:06.609Z,79.46
2022-09-27T07:59:12.563Z,79.58
2022-09-27T08:02:20.522Z,79.62
2022-09-27T08:05:27.197Z,79.67
2022-09-27T08:08:34.426Z,79.63
2022-09-27T08:11:44.065Z,79.51
2022-09-27T08:14:51.365Z,79.43
2022-09-27T08:18:00.887Z,79.31
2022-09-27T08:21:22.473Z,79.19
2022-09-27T08:24:38.650Z,79.06
2022-09-27T08:27:50.594Z,79.03
2022-09-27T08:30:59.241Z,78.99
2022-09-27T08:34:06.035Z,78.95
2022-09-27T08:37:12.896Z,78.90
2022-09-27T08:40:21.695Z,78.85
2022-09-27T08:43:44.733Z,78.92
2022-09-27T08:47:22.700Z,78.98
2022-09-27T08:50:42.509Z,78.99
2022-09-27T08:54:03.382Z,79.00
2022-09-27T08:57:11.549Z,79.07
2022-09-27T09:00:24.500Z,79.16
2022-09-27T09:03:34.518Z,79.20
2022-09-27T09:06:57.378Z,79.23
2022-09-27T09:10:26.913Z,79.26
2022-09-27T09:13:51.793Z,79.29
2022-09-27T09:17:20.955Z,79.26
2022-09-27T09:21:06.195Z,79.32
2022-09-27T09:24:20.512Z,79.35
2022-09-27T09:27:51.939Z,79.43
2022-09-27T09:31:08.944Z,79.52
2022-09-27T09:34:23.283Z,79.47
2022-09-27T09:37:39.091Z,79.49
2022-09-27T09:40:59.278Z,79.53
2022-09-27T09:44:21.353Z,79.62
2022-09-27T09:47:42.796Z,79.76
2022-09-27T09:50:57.827Z,79.87
2022-09-27T09:54:15.750Z,79.91
2022-09-27T09:57:32.092Z,79.99
2022-09-27T10:00:33.069Z,80.16
2022-09-27T10:03:41.254Z,80.30
2022-09-27T10:07:16.283Z,80.42
2022-09-27T10:10:29.859Z,80.46
2022-09-27T10:13:51.375Z,80.52
2022-09-27T10:17:01.657Z,80.49
2022-09-27T10:20:08.200Z,80.50
2022-09-27T10:23:24.074Z,80.49
2022-09-27T10:26:34.044Z,80.50
2022-09-27T10:29:51.276Z,80.54
2022-09-27T10:32:58.223Z,80.59
2022-09-27T10:36:16.784Z,80.58
2022-09-27T10:39:25.450Z,80.64
2022-09-27T10:42:52.603Z,80.66
2022-09-27T10:46:02.631Z,80.74
2022-09-27T10:49:26.155Z,80.78
2022-09-27T10:52:39.527Z,80.81
2022-09-27T10:55:50.461Z,80.82
2022-09-27T10:59:01.176Z,80.77
2022-09-27T11:02:06.881Z,80.75
2022-09-27T11:05:43.309Z,80.84
2022-09-27T11:08:49.658Z,80.89
2022-09-27T11:11:57.344Z,80.93
2022-09-27T11:15:13.732Z,80.85
2022-09-27T11:18:26.286Z,80.86
2022-09-27T11:21:48.954Z,80.94
2022-09-27T11:25:17.414Z,80.98
2022-09-27T11:28:31.300Z,81.03
2022-09-27T11:32:09.645Z,81.00
2022-09-27T11:35:45.400Z,80.94
2022-09-27T11:39:18.311Z,80.97
2022-09-27T11:42:31.183Z,81.06
2022-09-27T11:46:14.377Z,81.25
2022-09-27T11:49:23.053Z,81.35
2022-09-27T11:52:42.995Z,81.39
2022-09-27T11:55:55.547Z,81.29
2022-09-27T11:59:38.685Z,81.31
2022-09-27T12:03:08.027Z,81.37
2022-09-27T12:06:23.365Z,81.41
2022-09-27T12:09:42.974Z,81.35
2022-09-27T12:12:53.294Z,81.27
2022-09-27T12:16:00.316Z,81.17
2022-09-27T12:19:09.373Z,81.13
2022-09-27T12:22:40.217Z,81.14
2022-09-27T12:25:32.326Z,81.21
2022-09-27T12:29:06.985Z,81.25
2022-09-27T12:32:48.685Z,81.27
2022-09-27T12:36:04.587Z,81.34
2022-09-27T12:39:20.521Z,81.42
2022-09-27T12:42:36.795Z,81.49
2022-09-27T12:46:19.335Z,81.51
2022-09-27T12:49:31.651Z,81.46
2022-09-27T12:52:39.858Z,81.54
2022-09-27T12:56:07.530Z,81.72
2022-09-27T12:59:43.592Z,81.79
2022-09-27T13:03:15.687Z,81.79
2022-09-27T13:06:24.916Z,81.86
2022-09-27T13:09:46.239Z,81.85
2022-09-27T13:12:52.972Z,81.91
2022-09-27T13:16:00.419Z,81.98
2022-09-27T13:19:14.245Z,82.04
2022-09-27T13:22:24.856Z,81.99
2022-09-27T13:26:11.110Z,82.10
2022-09-27T13:29:20.300Z,82.17
2022-09-27T13:32:32.842Z,82.22
2022-09-27T13:35:40.891Z,82.31
2022-09-27T13:38:57.472Z,82.48
2022-09-27T13:42:11.166Z,82.53
2022-09-27T13:45:42.527Z,82.60
2022-09-27T13:49:13.554Z,82.62
2022-09-27T13:52:43.748Z,82.74
2022-09-27T13:56:05.690Z,82.86
2022-09-27T13:59:16.593Z,82.91
2022-09-27T14:02:46.134Z,82.98
2022-09-27T14:05:55.647Z,83.10
2022-09-27T14:09:12.429Z,83.23
2022-09-27T14:12:25.707Z,83.30
2022-09-27T14:15:39.272Z,83.38
2022-09-27T14:18:50.239Z,83.45
2022-09-27T14:22:30.761Z,83.49
2022-09-27T14:25:39.358Z,83.57
2022-09-27T14:28:55.465Z,83.70
2022-09-27T14:32:05.772Z,83.78
2022-09-27T14:35:45.415Z,83.89
2022-09-27T14:38:53.331Z,84.00
2022-09-27T14:42:01.291Z,84.11
2022-09-27T14:45:15.833Z,84.21
2022-09-27T14:48:42.357Z,84.30
2022-09-27T14:51:47.565Z,84.39
2022-09-27T14:54:54.314Z,84.48
2022-09-27T14:58:35.975Z,84.54
2022-09-27T15:01:34.059Z,84.60
2022-09-27T15:04:40.949Z,84.65
2022-09-27T15:07:48.972Z,84.71
2022-09-27T15:10:57.084Z,84.80
2022-09-27T15:14:07.400Z,84.86
2022-09-27T15:17:13.403Z,84.90
2022-09-27T15:20:37.066Z,84.94
2022-09-27T15:23:47.969Z,84.95
2022-09-27T15:27:00.367Z,84.99
2022-09-27T15:30:11.141Z,85.03
2022-09-27T15:33:16.869Z,85.05
2022-09-27T15:36:26.430Z,85.06
2022-09-27T15:39:41.279Z,85.07
2022-09-27T15:42:48.815Z,85.10
2022-09-27T15:45:56.778Z,85.18
2022-09-27T15:49:01.497Z,85.26
2022-09-27T15:52:09.067Z,85.30
2022-09-27T15:55:17.398Z,85.33
2022-09-27T15:58:32.274Z,85.41
2022-09-27T16:01:37.709Z,85.45
2022-09-27T16:04:43.355Z,85.50
2022-09-27T16:07:49.245Z,85.53
2022-09-27T16:11:02.548Z,85.51
2022-09-27T16:14:08.214Z,85.55
2022-09-27T16:17:14.486Z,85.57
2022-09-27T16:20:21.429Z,85.58
2022-09-27T16:23:27.390Z,85.62
2022-09-27T16:26:33.350Z,85.64
2022-09-27T16:29:44.171Z,85.61
2022-09-27T16:32:48.433Z,85.66
2022-09-27T16:35:56.159Z,85.66
2022-09-27T16:39:05.763Z,85.67
2022-09-27T16:42:14.754Z,85.71
2022-09-27T16:45:23.587Z,85.69
2022-09-27T16:48:31.557Z,85.74
2022-09-27T16:51:55.757Z,85.78
2022-09-27T16:55:01.286Z,85.82
2022-09-27T16:58:07.653Z,85.86
2022-09-27T17:01:15.133Z,85.94
2022-09-27T17:04:24.950Z,85.96
2022-09-27T17:07:33.004Z,85.99
2022-09-27T17:10:38.177Z,86.08
2022-09-27T17:13:45.455Z,86.12
2022-09-27T17:16:52.888Z,86.15
2022-09-27T17:19:59.746Z,86.17
2022-09-27T17:23:08.233Z,86.17
2022-09-27T17:26:23.193Z,86.20
2022-09-27T17:29:28.859Z,86.22
2022-09-27T17:32:35.869Z,86.24
2022-09-27T17:35:42.244Z,86.28
2022-09-27T17:38:48.375Z,86.33
2022-09-27T17:41:55.611Z,86.40
2022-09-27T17:45:00.644Z,86.44
2022-09-27T17:48:24.424Z,86.51
2022-09-27T17:51:29.866Z,86.54
2022-09-27T17:54:38.432Z,86.59
2022-09-27T17:57:45.890Z,86.63
2022-09-27T18:00:51.860Z,86.67
2022-09-27T18:03:58.063Z,86.71
2022-09-27T18:07:04.865Z,86.76
2022-09-27T18:10:11.273Z,86.80
2022-09-27T18:13:21.444Z,86.84
2022-09-27T18:16:33.794Z,86.86
2022-09-27T18:19:40.871Z,86.89
2022-09-27T18:22:48.157Z,86.91
2022-09-27T18:25:56.697Z,86.93
2022-09-27T18:29:01.860Z,86.95
2022-09-27T18:32:10.514Z,86.96
2022-09-27T18:35:17.293Z,87.01
2022-09-27T18:38:24.714Z,87.05
2022-09-27T18:41:32.396Z,87.09
2022-09-27T18:44:39.080Z,87.09
2022-09-27T18:47:49.450Z,87.10
2022-09-27T18:50:57.055Z,87.11
2022-09-27T18:54:03.735Z,87.15
2022-09-27T18:57:12.571Z,87.19
2022-09-27T19:00:21.251Z,87.22
2022-09-27T19:03:31.041Z,87.26
2022-09-27T19:06:40.004Z,87.28
2022-09-27T19:09:46.797Z,87.32
2022-09-27T19:12:55.454Z,87.36
2022-09-27T19:16:12.057Z,87.40
2022-09-27T19:19:19.774Z,87.42
2022-09-27T19:22:28.701Z,87.41
2022-09-27T19:25:34.647Z,87.47
2022-09-27T19:28:42.043Z,87.49
2022-09-27T19:31:48.898Z,87.55
2022-09-27T19:34:56.673Z,87.60
2022-09-27T19:38:03.064Z,87.62
2022-09-27T19:41:09.975Z,87.65
2022-09-27T19:44:16.968Z,87.69
2022-09-27T19:47:24.326Z,87.74
2022-09-27T19:50:30.404Z,87.76
2022-09-27T19:53:36.047Z,87.81
2022-09-27T19:56:42.538Z,87.86
2022-09-27T19:59:49.702Z,87.87
2022-09-27T20:02:56.191Z,87.90
2022-09-27T20:06:10.966Z,87.92
2022-09-27T20:09:16.263Z,87.94
2022-09-27T20:12:22.958Z,87.95
2022-09-27T20:15:28.821Z,87.98
2022-09-27T20:18:34.528Z,87.97
2022-09-27T20:21:46.692Z,88.00
2022-09-27T20:24:52.838Z,88.02
2022-09-27T20:27:59.481Z,88.08
2022-09-27T20:31:17.896Z,88.13
2022-09-27T20:34:30.434Z,88.06
2022-09-27T20:37:37.470Z,88.11
2022-09-27T20:40:44.021Z,88.13
2022-09-27T20:43:50.316Z,88.18
2022-09-27T20:46:55.642Z,88.23
2022-09-27T20:50:01.098Z,88.26
2022-09-27T20:53:07.878Z,88.29
2022-09-27T20:56:14.245Z,88.35
2022-09-27T20:59:23.335Z,88.39
2022-09-27T21:02:31.221Z,88.37
2022-09-27T21:05:36.113Z,88.40
2022-09-27T21:08:44.070Z,88.45
2022-09-27T21:11:48.699Z,88.50
2022-09-27T21:14:55.613Z,88.56
2022-09-27T21:18:04.614Z,88.61
2022-09-27T21:21:24.045Z,88.65
2022-09-27T21:24:31.593Z,88.70
2022-09-27T21:27:37.900Z,88.73
2022-09-27T21:30:44.545Z,88.72
2022-09-27T21:33:51.557Z,88.71
2022-09-27T21:36:57.968Z,88.76
2022-09-27T21:40:04.833Z,88.76
2022-09-27T21:43:10.808Z,88.77
2022-09-27T21:46:21.488Z,88.77
2022-09-27T21:49:26.085Z,88.81
2022-09-27T21:52:32.696Z,88.81
2022-09-27T21:55:38.666Z,88.73
2022-09-27T21:58:49.164Z,88.70
2022-09-27T22:01:56.421Z,88.72
2022-09-27T22:05:02.686Z,88.74
2022-09-27T22:08:11.047Z,88.67
2022-09-27T22:11:17.437Z,88.58
2022-09-27T22:14:23.841Z,88.57
2022-09-27T22:17:28.724Z,88.56
2022-09-27T22:20:34.188Z,88.51
2022-09-27T22:23:40.551Z,88.48
2022-09-27T22:26:50.453Z,88.47
2022-09-27T22:29:56.787Z,88.48
2022-09-27T22:33:02.673Z,88.55
2022-09-27T22:36:08.645Z,88.58
2022-09-27T22:39:15.684Z,88.55
2022-09-27T22:42:21.898Z,88.56
2022-09-27T22:45:27.467Z,88.57
2022-09-27T22:48:33.539Z,88.57
2022-09-27T22:51:39.075Z,88.52
2022-09-27T22:54:44.563Z,88.53
2022-09-27T22:57:49.912Z,88.56
2022-09-27T23:00:55.616Z,88.61
2022-09-27T23:04:04.442Z,88.55
2022-09-27T23:07:12.511Z,88.57
2022-09-27T23:10:19.075Z,88.55
2022-09-27T23:13:25.584Z,88.54
2022-09-27T23:16:37.444Z,88.52
2022-09-27T23:19:44.692Z,88.55
2022-09-27T23:22:49.982Z,88.38
2022-09-27T23:25:55.965Z,88.34
2022-09-27T23:29:01.379Z,88.31
2022-09-27T23:32:08.498Z,88.35
2022-09-27T23:35:15.563Z,88.31
2022-09-27T23:38:22.868Z,88.37
2022-09-27T23:41:29.525Z,88.43
2022-09-27T23:44:37.687Z,88.48
2022-09-27T23:47:46.594Z,88.50
2022-09-27T23:50:52.965Z,88.52
2022-09-27T23:53:58.066Z,88.55
2022-09-27T23:57:03.154Z,88.55
